Terminal Aerodrome Forecast
Issued by NWS

Home | Current Version | Previous Version | Text Only | Print | Product List | Glossary On
Versions: 1 2 3 4 5 6 7 8 9 10 11 12 13 14 15 16 17 18
000
FTPA31 PHFO 290531
TAFHMK
TAF
PHMK 290531Z 2906/3006 04012G18KT P6SM SCT020 SCT040 BKN070
     FM290900 04009KT P6SM FEW020 SCT040 SCT070
     FM292100 04015G21KT P6SM FEW040 SCT070=

USA.gov is the U.S. government's official web portal to all federal, state and local government web resources and services.